sensor_id;sensor_type;location;lat;lon;timestamp;P1;durP1;ratioP1;P2;durP2;ratioP2
83632;SDS011;73595;53.084;6.696;2023-12-22T00:02:18;34.50;;;4.82;;
83632;SDS011;73595;53.084;6.696;2023-12-22T00:04:53;26.10;;;3.83;;
83632;SDS011;73595;53.084;6.696;2023-12-22T00:07:20;30.35;;;3.97;;
83632;SDS011;73595;53.084;6.696;2023-12-22T00:09:49;32.05;;;4.07;;
83632;SDS011;73595;53.084;6.696;2023-12-22T00:12:22;28.02;;;3.63;;
83632;SDS011;73595;53.084;6.696;2023-12-22T00:14:48;26.48;;;3.40;;
83632;SDS011;73595;53.084;6.696;2023-12-22T00:17:18;27.58;;;3.47;;
83632;SDS011;73595;53.084;6.696;2023-12-22T00:19:57;17.75;;;3.63;;
83632;SDS011;73595;53.084;6.696;2023-12-22T00:22:30;26.25;;;3.65;;
83632;SDS011;73595;53.084;6.696;2023-12-22T00:25:04;28.85;;;4.85;;
83632;SDS011;73595;53.084;6.696;2023-12-22T00:27:43;29.25;;;3.40;;
83632;SDS011;73595;53.084;6.696;2023-12-22T00:30:12;24.80;;;3.97;;
83632;SDS011;73595;53.084;6.696;2023-12-22T00:32:42;23.17;;;2.95;;
83632;SDS011;73595;53.084;6.696;2023-12-22T00:35:10;24.33;;;3.15;;
83632;SDS011;73595;53.084;6.696;2023-12-22T00:37:40;27.40;;;3.22;;
83632;SDS011;73595;53.084;6.696;2023-12-22T00:40:10;34.78;;;3.50;;
83632;SDS011;73595;53.084;6.696;2023-12-22T00:42:53;18.27;;;2.53;;
83632;SDS011;73595;53.084;6.696;2023-12-22T00:45:42;20.60;;;2.72;;
83632;SDS011;73595;53.084;6.696;2023-12-22T00:48:50;25.20;;;2.97;;
83632;SDS011;73595;53.084;6.696;2023-12-22T00:51:20;15.30;;;3.17;;
83632;SDS011;73595;53.084;6.696;2023-12-22T00:53:52;27.27;;;2.70;;
83632;SDS011;73595;53.084;6.696;2023-12-22T00:56:27;18.42;;;1.85;;
83632;SDS011;73595;53.084;6.696;2023-12-22T00:59:30;22.05;;;2.83;;
83632;SDS011;73595;53.084;6.696;2023-12-22T01:02:10;11.02;;;1.58;;
83632;SDS011;73595;53.084;6.696;2023-12-22T01:04:40;9.38;;;1.45;;
83632;SDS011;73595;53.084;6.696;2023-12-22T01:07:07;14.20;;;1.77;;
83632;SDS011;73595;53.084;6.696;2023-12-22T01:09:56;14.10;;;1.98;;
83632;SDS011;73595;53.084;6.696;2023-12-22T01:12:28;20.92;;;3.15;;
83632;SDS011;73595;53.084;6.696;2023-12-22T01:14:56;13.95;;;2.22;;
83632;SDS011;73595;53.084;6.696;2023-12-22T01:17:27;18.50;;;3.10;;
83632;SDS011;73595;53.084;6.696;2023-12-22T01:19:56;17.40;;;2.53;;
83632;SDS011;73595;53.084;6.696;2023-12-22T01:22:28;20.15;;;2.50;;
83632;SDS011;73595;53.084;6.696;2023-12-22T01:25:01;26.60;;;3.03;;
83632;SDS011;73595;53.084;6.696;2023-12-22T01:27:27;23.05;;;3.33;;
83632;SDS011;73595;53.084;6.696;2023-12-22T01:29:54;29.83;;;3.20;;
83632;SDS011;73595;53.084;6.696;2023-12-22T01:32:25;28.65;;;3.97;;
83632;SDS011;73595;53.084;6.696;2023-12-22T01:35:13;23.98;;;3.50;;
83632;SDS011;73595;53.084;6.696;2023-12-22T01:38:05;27.48;;;4.10;;
83632;SDS011;73595;53.084;6.696;2023-12-22T01:40:33;30.85;;;4.07;;
83632;SDS011;73595;53.084;6.696;2023-12-22T01:43:00;27.23;;;3.35;;
83632;SDS011;73595;53.084;6.696;2023-12-22T01:45:28;33.92;;;3.63;;
83632;SDS011;73595;53.084;6.696;2023-12-22T01:47:55;30.85;;;3.78;;
83632;SDS011;73595;53.084;6.696;2023-12-22T01:50:21;28.02;;;5.05;;
83632;SDS011;73595;53.084;6.696;2023-12-22T01:52:57;34.78;;;3.75;;
83632;SDS011;73595;53.084;6.696;2023-12-22T01:55:26;27.67;;;4.00;;
83632;SDS011;73595;53.084;6.696;2023-12-22T01:57:51;27.73;;;3.72;;
83632;SDS011;73595;53.084;6.696;2023-12-22T02:00:30;29.83;;;3.70;;
83632;SDS011;73595;53.084;6.696;2023-12-22T02:02:58;28.05;;;3.42;;
83632;SDS011;73595;53.084;6.696;2023-12-22T02:05:49;25.17;;;3.30;;
83632;SDS011;73595;53.084;6.696;2023-12-22T02:08:17;25.33;;;3.65;;
83632;SDS011;73595;53.084;6.696;2023-12-22T02:11:01;27.58;;;3.65;;
83632;SDS011;73595;53.084;6.696;2023-12-22T02:13:39;24.73;;;3.60;;
83632;SDS011;73595;53.084;6.696;2023-12-22T02:22:07;34.10;;;4.22;;
83632;SDS011;73595;53.084;6.696;2023-12-22T02:24:38;27.52;;;3.78;;
83632;SDS011;73595;53.084;6.696;2023-12-22T02:33:27;32.90;;;3.83;;
83632;SDS011;73595;53.084;6.696;2023-12-22T02:36:37;22.45;;;2.30;;
83632;SDS011;73595;53.084;6.696;2023-12-22T02:39:05;24.88;;;3.03;;
83632;SDS011;73595;53.084;6.696;2023-12-22T02:41:34;23.17;;;3.15;;
83632;SDS011;73595;53.084;6.696;2023-12-22T02:44:01;19.95;;;2.15;;
83632;SDS011;73595;53.084;6.696;2023-12-22T02:46:30;16.25;;;2.58;;
83632;SDS011;73595;53.084;6.696;2023-12-22T02:48:55;21.80;;;3.25;;
83632;SDS011;73595;53.084;6.696;2023-12-22T02:51:27;19.55;;;2.72;;
83632;SDS011;73595;53.084;6.696;2023-12-22T02:53:54;20.33;;;2.42;;
83632;SDS011;73595;53.084;6.696;2023-12-22T02:56:23;24.23;;;2.92;;
83632;SDS011;73595;53.084;6.696;2023-12-22T02:58:50;18.77;;;3.63;;
83632;SDS011;73595;53.084;6.696;2023-12-22T03:01:20;23.80;;;3.17;;
83632;SDS011;73595;53.084;6.696;2023-12-22T03:03:45;27.02;;;3.67;;
83632;SDS011;73595;53.084;6.696;2023-12-22T03:06:14;22.85;;;2.65;;
83632;SDS011;73595;53.084;6.696;2023-12-22T03:08:42;25.45;;;3.47;;
83632;SDS011;73595;53.084;6.696;2023-12-22T03:11:08;30.05;;;3.38;;
83632;SDS011;73595;53.084;6.696;2023-12-22T03:13:33;26.23;;;4.28;;
83632;SDS011;73595;53.084;6.696;2023-12-22T03:16:22;27.00;;;3.85;;
83632;SDS011;73595;53.084;6.696;2023-12-22T03:18:47;29.00;;;3.22;;
83632;SDS011;73595;53.084;6.696;2023-12-22T03:21:16;21.50;;;2.63;;
83632;SDS011;73595;53.084;6.696;2023-12-22T03:23:44;23.00;;;2.78;;
83632;SDS011;73595;53.084;6.696;2023-12-22T03:26:11;22.65;;;2.85;;
83632;SDS011;73595;53.084;6.696;2023-12-22T03:28:44;18.58;;;2.15;;
83632;SDS011;73595;53.084;6.696;2023-12-22T03:31:09;15.63;;;2.17;;
83632;SDS011;73595;53.084;6.696;2023-12-22T03:33:36;15.77;;;1.90;;
83632;SDS011;73595;53.084;6.696;2023-12-22T03:36:06;17.73;;;2.03;;
83632;SDS011;73595;53.084;6.696;2023-12-22T03:38:32;24.35;;;3.15;;
83632;SDS011;73595;53.084;6.696;2023-12-22T03:40:57;26.20;;;2.30;;
83632;SDS011;73595;53.084;6.696;2023-12-22T03:43:22;23.15;;;2.80;;
83632;SDS011;73595;53.084;6.696;2023-12-22T03:45:58;16.65;;;2.08;;
83632;SDS011;73595;53.084;6.696;2023-12-22T03:48:26;13.05;;;1.65;;
83632;SDS011;73595;53.084;6.696;2023-12-22T03:50:58;14.45;;;2.20;;
83632;SDS011;73595;53.084;6.696;2023-12-22T03:53:23;13.38;;;2.17;;
83632;SDS011;73595;53.084;6.696;2023-12-22T03:55:48;19.65;;;2.00;;
83632;SDS011;73595;53.084;6.696;2023-12-22T03:58:14;18.35;;;2.55;;
83632;SDS011;73595;53.084;6.696;2023-12-22T04:00:40;22.67;;;3.35;;
83632;SDS011;73595;53.084;6.696;2023-12-22T04:03:07;21.13;;;2.65;;
83632;SDS011;73595;53.084;6.696;2023-12-22T04:05:32;19.55;;;2.75;;
83632;SDS011;73595;53.084;6.696;2023-12-22T04:07:59;22.00;;;2.85;;
83632;SDS011;73595;53.084;6.696;2023-12-22T04:10:25;24.50;;;2.72;;
83632;SDS011;73595;53.084;6.696;2023-12-22T04:12:56;20.75;;;2.80;;
83632;SDS011;73595;53.084;6.696;2023-12-22T04:15:25;16.77;;;2.17;;
83632;SDS011;73595;53.084;6.696;2023-12-22T04:17:50;18.48;;;2.65;;
83632;SDS011;73595;53.084;6.696;2023-12-22T04:20:17;27.85;;;3.33;;
83632;SDS011;73595;53.084;6.696;2023-12-22T04:22:44;29.00;;;3.65;;
83632;SDS011;73595;53.084;6.696;2023-12-22T04:25:09;31.40;;;3.70;;
83632;SDS011;73595;53.084;6.696;2023-12-22T04:27:36;19.90;;;2.92;;
83632;SDS011;73595;53.084;6.696;2023-12-22T04:30:03;33.20;;;3.75;;
83632;SDS011;73595;53.084;6.696;2023-12-22T04:32:32;30.17;;;3.47;;
83632;SDS011;73595;53.084;6.696;2023-12-22T04:35:01;25.30;;;3.20;;
83632;SDS011;73595;53.084;6.696;2023-12-22T04:37:31;25.77;;;3.35;;
83632;SDS011;73595;53.084;6.696;2023-12-22T04:39:58;36.33;;;4.05;;
83632;SDS011;73595;53.084;6.696;2023-12-22T04:42:24;30.35;;;3.67;;
83632;SDS011;73595;53.084;6.696;2023-12-22T04:44:51;32.58;;;4.13;;
83632;SDS011;73595;53.084;6.696;2023-12-22T04:47:20;28.83;;;4.10;;
83632;SDS011;73595;53.084;6.696;2023-12-22T04:49:47;36.83;;;4.55;;
83632;SDS011;73595;53.084;6.696;2023-12-22T04:52:13;28.25;;;4.00;;
83632;SDS011;73595;53.084;6.696;2023-12-22T04:54:40;32.17;;;3.78;;
83632;SDS011;73595;53.084;6.696;2023-12-22T04:57:11;29.40;;;3.17;;
83632;SDS011;73595;53.084;6.696;2023-12-22T04:59:38;29.13;;;3.70;;
83632;SDS011;73595;53.084;6.696;2023-12-22T05:02:05;37.13;;;4.13;;
83632;SDS011;73595;53.084;6.696;2023-12-22T05:04:36;23.48;;;3.95;;
83632;SDS011;73595;53.084;6.696;2023-12-22T05:07:06;25.00;;;2.93;;
83632;SDS011;73595;53.084;6.696;2023-12-22T05:09:33;31.13;;;3.53;;
83632;SDS011;73595;53.084;6.696;2023-12-22T05:12:00;30.33;;;4.03;;
83632;SDS011;73595;53.084;6.696;2023-12-22T05:14:25;32.80;;;4.18;;
83632;SDS011;73595;53.084;6.696;2023-12-22T05:16:51;24.48;;;3.40;;
83632;SDS011;73595;53.084;6.696;2023-12-22T05:19:20;28.92;;;4.25;;
83632;SDS011;73595;53.084;6.696;2023-12-22T05:21:52;31.20;;;3.47;;
83632;SDS011;73595;53.084;6.696;2023-12-22T05:24:22;26.45;;;3.80;;
83632;SDS011;73595;53.084;6.696;2023-12-22T05:26:51;26.50;;;4.28;;
83632;SDS011;73595;53.084;6.696;2023-12-22T05:29:21;29.17;;;4.22;;
83632;SDS011;73595;53.084;6.696;2023-12-22T05:31:47;31.85;;;3.60;;
83632;SDS011;73595;53.084;6.696;2023-12-22T05:34:12;19.98;;;3.17;;
83632;SDS011;73595;53.084;6.696;2023-12-22T05:36:41;26.77;;;3.65;;
83632;SDS011;73595;53.084;6.696;2023-12-22T05:39:07;30.77;;;3.70;;
83632;SDS011;73595;53.084;6.696;2023-12-22T05:41:54;29.88;;;4.00;;
83632;SDS011;73595;53.084;6.696;2023-12-22T05:44:26;24.23;;;3.55;;
83632;SDS011;73595;53.084;6.696;2023-12-22T05:46:56;28.17;;;3.78;;
83632;SDS011;73595;53.084;6.696;2023-12-22T05:49:22;28.73;;;3.92;;
83632;SDS011;73595;53.084;6.696;2023-12-22T05:51:48;23.02;;;3.20;;
83632;SDS011;73595;53.084;6.696;2023-12-22T05:54:15;25.42;;;3.45;;
83632;SDS011;73595;53.084;6.696;2023-12-22T05:56:44;24.02;;;3.35;;
83632;SDS011;73595;53.084;6.696;2023-12-22T05:59:09;30.48;;;3.88;;
83632;SDS011;73595;53.084;6.696;2023-12-22T06:01:35;25.52;;;3.67;;
83632;SDS011;73595;53.084;6.696;2023-12-22T06:04:01;24.23;;;3.45;;
83632;SDS011;73595;53.084;6.696;2023-12-22T06:06:27;34.42;;;5.55;;
83632;SDS011;73595;53.084;6.696;2023-12-22T06:08:54;26.92;;;3.50;;
83632;SDS011;73595;53.084;6.696;2023-12-22T06:11:21;32.47;;;4.30;;
83632;SDS011;73595;53.084;6.696;2023-12-22T06:13:47;30.65;;;3.97;;
83632;SDS011;73595;53.084;6.696;2023-12-22T06:16:23;31.45;;;4.07;;
83632;SDS011;73595;53.084;6.696;2023-12-22T06:18:48;21.48;;;3.03;;
83632;SDS011;73595;53.084;6.696;2023-12-22T06:21:20;29.42;;;4.35;;
83632;SDS011;73595;53.084;6.696;2023-12-22T06:23:45;27.58;;;3.63;;
83632;SDS011;73595;53.084;6.696;2023-12-22T06:26:11;20.88;;;3.55;;
83632;SDS011;73595;53.084;6.696;2023-12-22T06:28:36;27.02;;;3.30;;
83632;SDS011;73595;53.084;6.696;2023-12-22T06:31:04;23.23;;;3.30;;
83632;SDS011;73595;53.084;6.696;2023-12-22T06:33:30;28.58;;;3.90;;
83632;SDS011;73595;53.084;6.696;2023-12-22T06:35:55;24.40;;;3.25;;
83632;SDS011;73595;53.084;6.696;2023-12-22T06:38:22;18.98;;;3.15;;
83632;SDS011;73595;53.084;6.696;2023-12-22T06:40:47;24.77;;;3.20;;
83632;SDS011;73595;53.084;6.696;2023-12-22T06:43:13;22.45;;;3.10;;
83632;SDS011;73595;53.084;6.696;2023-12-22T06:45:39;25.15;;;3.50;;
83632;SDS011;73595;53.084;6.696;2023-12-22T06:48:05;23.63;;;2.92;;
83632;SDS011;73595;53.084;6.696;2023-12-22T06:50:31;22.23;;;3.45;;
83632;SDS011;73595;53.084;6.696;2023-12-22T06:52:56;22.52;;;2.88;;
83632;SDS011;73595;53.084;6.696;2023-12-22T06:55:22;26.42;;;3.47;;
83632;SDS011;73595;53.084;6.696;2023-12-22T06:57:48;23.40;;;3.25;;
83632;SDS011;73595;53.084;6.696;2023-12-22T07:00:14;16.13;;;2.47;;
83632;SDS011;73595;53.084;6.696;2023-12-22T07:02:39;22.55;;;3.28;;
83632;SDS011;73595;53.084;6.696;2023-12-22T07:07:36;14.57;;;2.90;;
83632;SDS011;73595;53.084;6.696;2023-12-22T07:10:01;14.20;;;2.85;;
83632;SDS011;73595;53.084;6.696;2023-12-22T07:12:27;18.73;;;2.47;;
83632;SDS011;73595;53.084;6.696;2023-12-22T07:14:54;25.30;;;2.83;;
83632;SDS011;73595;53.084;6.696;2023-12-22T07:17:19;22.88;;;2.70;;
83632;SDS011;73595;53.084;6.696;2023-12-22T07:19:45;15.75;;;2.67;;
83632;SDS011;73595;53.084;6.696;2023-12-22T07:22:10;19.63;;;2.83;;
83632;SDS011;73595;53.084;6.696;2023-12-22T07:24:35;24.20;;;3.72;;
83632;SDS011;73595;53.084;6.696;2023-12-22T07:27:01;26.95;;;3.35;;
83632;SDS011;73595;53.084;6.696;2023-12-22T07:29:26;25.77;;;3.17;;
83632;SDS011;73595;53.084;6.696;2023-12-22T07:31:51;20.33;;;4.20;;
83632;SDS011;73595;53.084;6.696;2023-12-22T07:34:17;25.85;;;3.25;;
83632;SDS011;73595;53.084;6.696;2023-12-22T07:36:43;20.13;;;3.08;;
83632;SDS011;73595;53.084;6.696;2023-12-22T07:39:09;16.60;;;2.35;;
83632;SDS011;73595;53.084;6.696;2023-12-22T07:41:35;23.27;;;2.85;;
83632;SDS011;73595;53.084;6.696;2023-12-22T07:44:01;27.35;;;3.22;;
83632;SDS011;73595;53.084;6.696;2023-12-22T07:46:26;21.55;;;3.00;;
83632;SDS011;73595;53.084;6.696;2023-12-22T07:48:53;22.52;;;3.35;;
83632;SDS011;73595;53.084;6.696;2023-12-22T07:51:19;19.10;;;3.03;;
83632;SDS011;73595;53.084;6.696;2023-12-22T07:53:44;20.42;;;3.38;;
83632;SDS011;73595;53.084;6.696;2023-12-22T07:56:09;27.13;;;3.97;;
83632;SDS011;73595;53.084;6.696;2023-12-22T07:58:36;27.55;;;3.80;;
83632;SDS011;73595;53.084;6.696;2023-12-22T08:01:06;25.83;;;3.38;;
83632;SDS011;73595;53.084;6.696;2023-12-22T08:03:34;14.57;;;2.70;;
83632;SDS011;73595;53.084;6.696;2023-12-22T08:06:02;31.45;;;3.83;;
83632;SDS011;73595;53.084;6.696;2023-12-22T08:08:28;18.27;;;3.20;;
83632;SDS011;73595;53.084;6.696;2023-12-22T08:10:53;23.83;;;3.13;;
83632;SDS011;73595;53.084;6.696;2023-12-22T08:13:19;21.70;;;2.80;;
83632;SDS011;73595;53.084;6.696;2023-12-22T08:15:45;22.10;;;2.80;;
83632;SDS011;73595;53.084;6.696;2023-12-22T08:18:10;16.88;;;2.85;;
83632;SDS011;73595;53.084;6.696;2023-12-22T08:20:36;16.40;;;2.70;;
83632;SDS011;73595;53.084;6.696;2023-12-22T08:23:05;23.48;;;3.40;;
83632;SDS011;73595;53.084;6.696;2023-12-22T08:25:30;23.40;;;4.10;;
83632;SDS011;73595;53.084;6.696;2023-12-22T08:27:56;19.45;;;3.03;;
83632;SDS011;73595;53.084;6.696;2023-12-22T08:30:22;20.95;;;3.13;;
83632;SDS011;73595;53.084;6.696;2023-12-22T08:32:49;25.45;;;3.70;;
83632;SDS011;73595;53.084;6.696;2023-12-22T08:35:15;28.85;;;3.22;;
83632;SDS011;73595;53.084;6.696;2023-12-22T08:37:42;25.90;;;3.17;;
83632;SDS011;73595;53.084;6.696;2023-12-22T08:40:08;19.08;;;2.85;;
83632;SDS011;73595;53.084;6.696;2023-12-22T08:42:34;18.20;;;2.88;;
83632;SDS011;73595;53.084;6.696;2023-12-22T08:45:00;24.23;;;2.97;;
83632;SDS011;73595;53.084;6.696;2023-12-22T08:47:28;19.23;;;2.42;;
83632;SDS011;73595;53.084;6.696;2023-12-22T08:49:55;21.77;;;2.60;;
83632;SDS011;73595;53.084;6.696;2023-12-22T08:52:20;21.58;;;3.20;;
83632;SDS011;73595;53.084;6.696;2023-12-22T08:54:46;19.17;;;2.63;;
83632;SDS011;73595;53.084;6.696;2023-12-22T08:57:11;22.70;;;2.40;;
83632;SDS011;73595;53.084;6.696;2023-12-22T08:59:36;15.20;;;2.50;;
83632;SDS011;73595;53.084;6.696;2023-12-22T09:02:02;17.45;;;2.60;;
83632;SDS011;73595;53.084;6.696;2023-12-22T09:04:28;12.63;;;2.10;;
83632;SDS011;73595;53.084;6.696;2023-12-22T09:06:58;24.10;;;3.30;;
83632;SDS011;73595;53.084;6.696;2023-12-22T09:09:24;13.35;;;1.80;;
83632;SDS011;73595;53.084;6.696;2023-12-22T09:11:51;22.25;;;2.03;;
83632;SDS011;73595;53.084;6.696;2023-12-22T09:14:16;11.95;;;2.45;;
83632;SDS011;73595;53.084;6.696;2023-12-22T09:16:42;15.82;;;2.47;;
83632;SDS011;73595;53.084;6.696;2023-12-22T09:19:09;18.40;;;2.97;;
83632;SDS011;73595;53.084;6.696;2023-12-22T09:21:34;15.05;;;2.40;;
83632;SDS011;73595;53.084;6.696;2023-12-22T09:24:00;14.40;;;2.03;;
83632;SDS011;73595;53.084;6.696;2023-12-22T09:26:25;9.35;;;1.88;;
83632;SDS011;73595;53.084;6.696;2023-12-22T09:28:51;12.32;;;1.90;;
83632;SDS011;73595;53.084;6.696;2023-12-22T09:31:16;14.15;;;2.25;;
83632;SDS011;73595;53.084;6.696;2023-12-22T09:33:42;17.77;;;2.50;;
83632;SDS011;73595;53.084;6.696;2023-12-22T09:36:07;13.05;;;2.13;;
83632;SDS011;73595;53.084;6.696;2023-12-22T09:38:34;17.52;;;2.08;;
83632;SDS011;73595;53.084;6.696;2023-12-22T09:41:00;8.35;;;1.52;;
83632;SDS011;73595;53.084;6.696;2023-12-22T09:43:26;11.70;;;1.70;;
83632;SDS011;73595;53.084;6.696;2023-12-22T09:45:52;8.35;;;1.52;;
83632;SDS011;73595;53.084;6.696;2023-12-22T09:48:18;11.75;;;1.80;;
83632;SDS011;73595;53.084;6.696;2023-12-22T09:50:51;14.55;;;1.80;;
83632;SDS011;73595;53.084;6.696;2023-12-22T09:53:17;12.98;;;1.63;;
83632;SDS011;73595;53.084;6.696;2023-12-22T09:55:45;13.63;;;1.50;;
83632;SDS011;73595;53.084;6.696;2023-12-22T09:58:11;13.73;;;1.77;;
83632;SDS011;73595;53.084;6.696;2023-12-22T10:00:39;12.75;;;1.98;;
83632;SDS011;73595;53.084;6.696;2023-12-22T10:03:05;14.65;;;2.17;;
83632;SDS011;73595;53.084;6.696;2023-12-22T10:05:32;16.48;;;2.22;;
83632;SDS011;73595;53.084;6.696;2023-12-22T10:07:57;11.65;;;1.80;;
83632;SDS011;73595;53.084;6.696;2023-12-22T10:10:25;13.00;;;1.80;;
83632;SDS011;73595;53.084;6.696;2023-12-22T10:12:54;22.45;;;3.53;;
83632;SDS011;73595;53.084;6.696;2023-12-22T10:15:20;21.70;;;2.72;;
83632;SDS011;73595;53.084;6.696;2023-12-22T10:17:49;18.98;;;2.50;;
83632;SDS011;73595;53.084;6.696;2023-12-22T10:20:15;17.63;;;2.17;;
83632;SDS011;73595;53.084;6.696;2023-12-22T10:22:40;18.88;;;2.67;;
83632;SDS011;73595;53.084;6.696;2023-12-22T10:25:05;15.68;;;2.20;;
83632;SDS011;73595;53.084;6.696;2023-12-22T10:27:33;13.73;;;2.28;;
83632;SDS011;73595;53.084;6.696;2023-12-22T10:30:01;19.15;;;2.30;;
83632;SDS011;73595;53.084;6.696;2023-12-22T10:32:28;11.32;;;1.98;;
83632;SDS011;73595;53.084;6.696;2023-12-22T10:34:53;15.10;;;2.53;;
83632;SDS011;73595;53.084;6.696;2023-12-22T10:37:19;17.23;;;2.47;;
83632;SDS011;73595;53.084;6.696;2023-12-22T10:39:46;13.40;;;2.10;;
83632;SDS011;73595;53.084;6.696;2023-12-22T10:42:14;12.68;;;1.70;;
83632;SDS011;73595;53.084;6.696;2023-12-22T10:44:40;19.20;;;2.47;;
83632;SDS011;73595;53.084;6.696;2023-12-22T10:47:06;12.40;;;1.98;;
83632;SDS011;73595;53.084;6.696;2023-12-22T10:49:32;13.68;;;2.35;;
83632;SDS011;73595;53.084;6.696;2023-12-22T10:51:58;13.00;;;2.25;;
83632;SDS011;73595;53.084;6.696;2023-12-22T10:54:25;11.65;;;1.88;;
83632;SDS011;73595;53.084;6.696;2023-12-22T10:56:52;18.73;;;2.35;;
83632;SDS011;73595;53.084;6.696;2023-12-22T10:59:22;16.83;;;2.45;;
83632;SDS011;73595;53.084;6.696;2023-12-22T11:01:48;14.65;;;2.03;;
83632;SDS011;73595;53.084;6.696;2023-12-22T11:04:20;15.67;;;2.93;;
83632;SDS011;73595;53.084;6.696;2023-12-22T11:06:47;18.92;;;2.30;;
83632;SDS011;73595;53.084;6.696;2023-12-22T11:09:15;14.25;;;2.15;;
83632;SDS011;73595;53.084;6.696;2023-12-22T11:11:43;18.25;;;2.38;;
83632;SDS011;73595;53.084;6.696;2023-12-22T11:14:10;17.83;;;2.28;;
83632;SDS011;73595;53.084;6.696;2023-12-22T11:16:38;19.75;;;3.13;;
83632;SDS011;73595;53.084;6.696;2023-12-22T11:19:06;19.05;;;2.38;;
83632;SDS011;73595;53.084;6.696;2023-12-22T11:21:33;20.38;;;2.22;;
83632;SDS011;73595;53.084;6.696;2023-12-22T11:24:01;16.98;;;2.40;;
83632;SDS011;73595;53.084;6.696;2023-12-22T11:26:29;17.05;;;2.15;;
83632;SDS011;73595;53.084;6.696;2023-12-22T11:28:54;21.42;;;2.22;;
83632;SDS011;73595;53.084;6.696;2023-12-22T11:31:21;23.35;;;2.45;;
83632;SDS011;73595;53.084;6.696;2023-12-22T11:33:50;20.05;;;2.38;;
83632;SDS011;73595;53.084;6.696;2023-12-22T11:36:16;17.70;;;2.60;;
83632;SDS011;73595;53.084;6.696;2023-12-22T11:38:46;17.20;;;2.40;;
83632;SDS011;73595;53.084;6.696;2023-12-22T11:41:19;14.68;;;2.45;;
83632;SDS011;73595;53.084;6.696;2023-12-22T11:43:47;18.38;;;3.15;;
83632;SDS011;73595;53.084;6.696;2023-12-22T11:46:16;23.50;;;2.42;;
83632;SDS011;73595;53.084;6.696;2023-12-22T11:48:46;22.55;;;2.70;;
83632;SDS011;73595;53.084;6.696;2023-12-22T11:51:13;20.67;;;2.65;;
83632;SDS011;73595;53.084;6.696;2023-12-22T11:53:39;24.23;;;2.45;;
83632;SDS011;73595;53.084;6.696;2023-12-22T11:56:06;13.23;;;2.00;;
83632;SDS011;73595;53.084;6.696;2023-12-22T11:58:40;15.00;;;2.03;;
83632;SDS011;73595;53.084;6.696;2023-12-22T12:01:19;21.15;;;2.65;;
83632;SDS011;73595;53.084;6.696;2023-12-22T12:08:59;17.17;;;2.28;;
83632;SDS011;73595;53.084;6.696;2023-12-22T12:14:19;17.13;;;2.28;;
83632;SDS011;73595;53.084;6.696;2023-12-22T12:16:47;13.68;;;2.33;;
83632;SDS011;73595;53.084;6.696;2023-12-22T12:19:14;19.08;;;2.17;;
83632;SDS011;73595;53.084;6.696;2023-12-22T12:21:40;15.27;;;2.33;;
83632;SDS011;73595;53.084;6.696;2023-12-22T12:24:05;17.95;;;2.97;;
83632;SDS011;73595;53.084;6.696;2023-12-22T12:26:32;24.58;;;2.65;;
83632;SDS011;73595;53.084;6.696;2023-12-22T12:29:00;21.15;;;3.05;;
83632;SDS011;73595;53.084;6.696;2023-12-22T12:31:36;22.25;;;2.58;;
83632;SDS011;73595;53.084;6.696;2023-12-22T12:34:06;24.25;;;3.30;;
83632;SDS011;73595;53.084;6.696;2023-12-22T12:36:39;17.60;;;2.35;;
83632;SDS011;73595;53.084;6.696;2023-12-22T12:39:08;12.07;;;1.80;;
83632;SDS011;73595;53.084;6.696;2023-12-22T12:41:41;13.48;;;2.15;;
83632;SDS011;73595;53.084;6.696;2023-12-22T12:44:10;15.77;;;2.50;;
83632;SDS011;73595;53.084;6.696;2023-12-22T12:46:36;15.10;;;2.53;;
83632;SDS011;73595;53.084;6.696;2023-12-22T12:49:07;21.48;;;2.35;;
83632;SDS011;73595;53.084;6.696;2023-12-22T12:54:07;18.60;;;2.03;;
83632;SDS011;73595;53.084;6.696;2023-12-22T12:56:40;18.55;;;2.20;;
83632;SDS011;73595;53.084;6.696;2023-12-22T12:59:14;18.58;;;2.47;;
83632;SDS011;73595;53.084;6.696;2023-12-22T13:01:40;18.65;;;2.83;;
83632;SDS011;73595;53.084;6.696;2023-12-22T13:04:07;12.23;;;2.30;;
83632;SDS011;73595;53.084;6.696;2023-12-22T13:06:33;18.27;;;2.38;;
83632;SDS011;73595;53.084;6.696;2023-12-22T13:09:01;16.33;;;2.22;;
83632;SDS011;73595;53.084;6.696;2023-12-22T13:11:28;16.48;;;2.13;;
83632;SDS011;73595;53.084;6.696;2023-12-22T13:13:58;19.65;;;2.53;;
83632;SDS011;73595;53.084;6.696;2023-12-22T13:16:27;16.63;;;1.98;;
83632;SDS011;73595;53.084;6.696;2023-12-22T13:18:59;12.48;;;2.00;;
83632;SDS011;73595;53.084;6.696;2023-12-22T13:21:28;14.60;;;2.22;;
83632;SDS011;73595;53.084;6.696;2023-12-22T13:24:33;14.95;;;2.00;;
83632;SDS011;73595;53.084;6.696;2023-12-22T13:29:41;11.05;;;1.67;;
83632;SDS011;73595;53.084;6.696;2023-12-22T13:32:19;11.40;;;1.50;;
83632;SDS011;73595;53.084;6.696;2023-12-22T13:34:49;14.45;;;1.83;;
83632;SDS011;73595;53.084;6.696;2023-12-22T13:37:20;14.60;;;1.98;;
83632;SDS011;73595;53.084;6.696;2023-12-22T13:39:49;15.57;;;1.92;;
83632;SDS011;73595;53.084;6.696;2023-12-22T13:42:16;11.07;;;1.70;;
83632;SDS011;73595;53.084;6.696;2023-12-22T13:44:45;17.00;;;1.80;;
83632;SDS011;73595;53.084;6.696;2023-12-22T13:47:20;13.60;;;1.73;;
83632;SDS011;73595;53.084;6.696;2023-12-22T13:49:48;16.60;;;1.88;;
83632;SDS011;73595;53.084;6.696;2023-12-22T13:52:28;9.70;;;1.35;;
83632;SDS011;73595;53.084;6.696;2023-12-22T13:54:57;8.23;;;1.17;;
83632;SDS011;73595;53.084;6.696;2023-12-22T13:57:28;6.57;;;0.98;;
83632;SDS011;73595;53.084;6.696;2023-12-22T13:59:54;5.43;;;0.88;;
83632;SDS011;73595;53.084;6.696;2023-12-22T14:02:20;8.02;;;0.75;;
83632;SDS011;73595;53.084;6.696;2023-12-22T14:04:48;10.57;;;1.38;;
83632;SDS011;73595;53.084;6.696;2023-12-22T14:07:14;4.05;;;0.73;;
83632;SDS011;73595;53.084;6.696;2023-12-22T14:09:40;5.90;;;0.88;;
83632;SDS011;73595;53.084;6.696;2023-12-22T14:12:07;11.45;;;1.63;;
83632;SDS011;73595;53.084;6.696;2023-12-22T14:14:35;9.27;;;1.08;;
83632;SDS011;73595;53.084;6.696;2023-12-22T14:17:01;8.82;;;1.20;;
83632;SDS011;73595;53.084;6.696;2023-12-22T14:19:27;11.63;;;1.38;;
83632;SDS011;73595;53.084;6.696;2023-12-22T14:21:54;9.25;;;1.25;;
83632;SDS011;73595;53.084;6.696;2023-12-22T14:24:23;11.95;;;1.38;;
83632;SDS011;73595;53.084;6.696;2023-12-22T14:26:52;17.13;;;1.70;;
83632;SDS011;73595;53.084;6.696;2023-12-22T14:29:21;11.95;;;1.88;;
83632;SDS011;73595;53.084;6.696;2023-12-22T14:31:51;13.02;;;1.98;;
83632;SDS011;73595;53.084;6.696;2023-12-22T14:34:17;14.23;;;1.83;;
83632;SDS011;73595;53.084;6.696;2023-12-22T14:36:47;8.75;;;1.38;;
83632;SDS011;73595;53.084;6.696;2023-12-22T14:41:54;18.10;;;2.10;;
83632;SDS011;73595;53.084;6.696;2023-12-22T14:44:21;14.55;;;1.58;;
83632;SDS011;73595;53.084;6.696;2023-12-22T14:46:46;16.45;;;1.60;;
83632;SDS011;73595;53.084;6.696;2023-12-22T14:49:13;11.65;;;1.50;;
83632;SDS011;73595;53.084;6.696;2023-12-22T14:51:38;8.32;;;1.27;;
83632;SDS011;73595;53.084;6.696;2023-12-22T14:54:07;9.18;;;1.40;;
83632;SDS011;73595;53.084;6.696;2023-12-22T14:56:38;6.32;;;1.40;;
83632;SDS011;73595;53.084;6.696;2023-12-22T14:59:05;14.60;;;1.63;;
83632;SDS011;73595;53.084;6.696;2023-12-22T15:01:33;10.18;;;1.38;;
83632;SDS011;73595;53.084;6.696;2023-12-22T15:03:59;12.77;;;1.88;;
83632;SDS011;73595;53.084;6.696;2023-12-22T15:06:24;9.25;;;1.40;;
83632;SDS011;73595;53.084;6.696;2023-12-22T15:08:49;11.50;;;1.60;;
83632;SDS011;73595;53.084;6.696;2023-12-22T15:11:15;9.60;;;1.40;;
83632;SDS011;73595;53.084;6.696;2023-12-22T15:13:40;7.20;;;1.40;;
83632;SDS011;73595;53.084;6.696;2023-12-22T15:16:06;9.95;;;1.40;;